sensor_id;sensor_type;location;lat;lon;timestamp;pressure;altitude;pressure_sealevel;temperature;humidity
47366;BME280;33105;47.964;7.982;2023-07-09T00:02:36;97058.84;;;20.29;57.97
47366;BME280;33105;47.964;7.982;2023-07-09T00:05:38;97052.03;;;20.35;58.03
47366;BME280;33105;47.964;7.982;2023-07-09T00:08:43;97061.81;;;20.33;58.03
47366;BME280;33105;47.964;7.982;2023-07-09T00:11:47;97054.28;;;20.33;57.99
47366;BME280;33105;47.964;7.982;2023-07-09T00:14:48;97060.13;;;20.23;58.12
47366;BME280;33105;47.964;7.982;2023-07-09T00:17:50;97055.28;;;20.29;57.75
47366;BME280;33105;47.964;7.982;2023-07-09T00:20:51;97052.84;;;20.36;57.79
47366;BME280;33105;47.964;7.982;2023-07-09T00:23:52;97046.06;;;20.42;56.91
47366;BME280;33105;47.964;7.982;2023-07-09T00:26:54;97055.59;;;20.50;57.16
47366;BME280;33105;47.964;7.982;2023-07-09T00:29:56;97053.34;;;20.60;55.72
47366;BME280;33105;47.964;7.982;2023-07-09T00:32:58;97060.34;;;20.35;56.67
47366;BME280;33105;47.964;7.982;2023-07-09T00:35:59;97052.50;;;20.29;57.05
47366;BME280;33105;47.964;7.982;2023-07-09T00:39:01;97054.88;;;20.44;56.03
47366;BME280;33105;47.964;7.982;2023-07-09T00:42:12;97059.22;;;20.36;56.34
47366;BME280;33105;47.964;7.982;2023-07-09T00:45:26;97060.94;;;20.46;55.64
47366;BME280;33105;47.964;7.982;2023-07-09T00:48:28;97054.94;;;20.53;55.67
47366;BME280;33105;47.964;7.982;2023-07-09T00:51:40;97062.28;;;20.49;55.60
47366;BME280;33105;47.964;7.982;2023-07-09T00:54:43;97069.31;;;20.55;55.40
47366;BME280;33105;47.964;7.982;2023-07-09T00:57:49;97060.34;;;20.35;56.56
47366;BME280;33105;47.964;7.982;2023-07-09T01:01:02;97066.19;;;20.25;57.81
47366;BME280;33105;47.964;7.982;2023-07-09T01:04:04;97065.28;;;20.16;57.65
47366;BME280;33105;47.964;7.982;2023-07-09T01:07:07;97064.97;;;20.18;56.94
47366;BME280;33105;47.964;7.982;2023-07-09T01:10:09;97069.09;;;20.20;56.77
47366;BME280;33105;47.964;7.982;2023-07-09T01:13:12;97067.84;;;20.35;55.81
47366;BME280;33105;47.964;7.982;2023-07-09T01:16:13;97065.88;;;20.27;56.61
47366;BME280;33105;47.964;7.982;2023-07-09T01:19:21;97063.47;;;20.12;56.76
47366;BME280;33105;47.964;7.982;2023-07-09T01:22:25;97058.19;;;20.01;57.31
47366;BME280;33105;47.964;7.982;2023-07-09T01:25:28;97061.06;;;20.19;57.08
47366;BME280;33105;47.964;7.982;2023-07-09T01:28:30;97058.53;;;20.09;57.26
47366;BME280;33105;47.964;7.982;2023-07-09T01:31:31;97063.75;;;20.01;57.59
47366;BME280;33105;47.964;7.982;2023-07-09T01:34:33;97050.41;;;19.90;57.78
47366;BME280;33105;47.964;7.982;2023-07-09T01:37:37;97050.03;;;19.83;58.04
47366;BME280;33105;47.964;7.982;2023-07-09T01:40:38;97043.50;;;19.79;57.91
47366;BME280;33105;47.964;7.982;2023-07-09T01:43:40;97050.81;;;19.75;58.35
47366;BME280;33105;47.964;7.982;2023-07-09T01:46:42;97049.53;;;19.81;57.85
47366;BME280;33105;47.964;7.982;2023-07-09T01:49:43;97051.47;;;19.80;57.66
47366;BME280;33105;47.964;7.982;2023-07-09T01:52:47;97046.94;;;19.84;57.71
47366;BME280;33105;47.964;7.982;2023-07-09T01:55:51;97042.69;;;19.78;57.80
47366;BME280;33105;47.964;7.982;2023-07-09T01:58:52;97043.72;;;19.68;58.06
47366;BME280;33105;47.964;7.982;2023-07-09T02:01:54;97046.19;;;19.70;57.98
47366;BME280;33105;47.964;7.982;2023-07-09T02:04:58;97047.63;;;19.67;57.74
47366;BME280;33105;47.964;7.982;2023-07-09T02:08:02;97050.84;;;19.83;57.25
47366;BME280;33105;47.964;7.982;2023-07-09T02:11:05;97052.50;;;19.84;56.69
47366;BME280;33105;47.964;7.982;2023-07-09T02:14:07;97054.81;;;19.68;57.72
47366;BME280;33105;47.964;7.982;2023-07-09T02:17:09;97054.75;;;19.60;58.46
47366;BME280;33105;47.964;7.982;2023-07-09T02:20:12;97058.34;;;19.47;59.32
47366;BME280;33105;47.964;7.982;2023-07-09T02:23:13;97055.50;;;19.52;59.33
47366;BME280;33105;47.964;7.982;2023-07-09T02:26:15;97055.06;;;19.45;59.44
47366;BME280;33105;47.964;7.982;2023-07-09T02:29:16;97064.81;;;19.42;59.42
47366;BME280;33105;47.964;7.982;2023-07-09T02:32:19;97061.03;;;19.38;59.31
47366;BME280;33105;47.964;7.982;2023-07-09T02:35:22;97057.69;;;19.27;59.86
47366;BME280;33105;47.964;7.982;2023-07-09T02:38:23;97063.06;;;19.46;58.11
47366;BME280;33105;47.964;7.982;2023-07-09T02:41:24;97058.56;;;19.36;58.50
47366;BME280;33105;47.964;7.982;2023-07-09T02:44:25;97054.34;;;19.39;58.39
47366;BME280;33105;47.964;7.982;2023-07-09T02:47:27;97051.34;;;19.63;57.24
47366;BME280;33105;47.964;7.982;2023-07-09T02:50:32;97059.41;;;19.51;57.28
47366;BME280;33105;47.964;7.982;2023-07-09T02:53:33;97056.41;;;19.47;58.50
47366;BME280;33105;47.964;7.982;2023-07-09T02:56:37;97059.41;;;19.51;57.98
47366;BME280;33105;47.964;7.982;2023-07-09T02:59:46;97058.97;;;19.44;57.88
47366;BME280;33105;47.964;7.982;2023-07-09T03:02:47;97061.13;;;19.33;58.09
47366;BME280;33105;47.964;7.982;2023-07-09T03:05:48;97062.44;;;19.63;56.83
47366;BME280;33105;47.964;7.982;2023-07-09T03:08:50;97066.75;;;19.55;57.05
47366;BME280;33105;47.964;7.982;2023-07-09T03:11:52;97062.75;;;19.61;56.79
47366;BME280;33105;47.964;7.982;2023-07-09T03:14:53;97063.53;;;19.76;56.44
47366;BME280;33105;47.964;7.982;2023-07-09T03:18:01;97070.34;;;19.56;57.35
47366;BME280;33105;47.964;7.982;2023-07-09T03:21:03;97062.75;;;19.61;56.97
47366;BME280;33105;47.964;7.982;2023-07-09T03:24:05;97075.22;;;19.50;57.53
47366;BME280;33105;47.964;7.982;2023-07-09T03:27:08;97064.50;;;19.44;58.08
47366;BME280;33105;47.964;7.982;2023-07-09T03:30:09;97061.22;;;19.42;57.96
47366;BME280;33105;47.964;7.982;2023-07-09T03:33:12;97070.66;;;19.41;58.32
47366;BME280;33105;47.964;7.982;2023-07-09T03:36:14;97073.34;;;19.46;57.53
47366;BME280;33105;47.964;7.982;2023-07-09T03:39:15;97073.66;;;19.44;56.84
47366;BME280;33105;47.964;7.982;2023-07-09T03:42:16;97075.41;;;19.54;57.25
47366;BME280;33105;47.964;7.982;2023-07-09T03:45:17;97076.22;;;19.54;57.19
47366;BME280;33105;47.964;7.982;2023-07-09T03:48:19;97078.69;;;19.42;57.46
47366;BME280;33105;47.964;7.982;2023-07-09T03:51:20;97078.97;;;19.41;57.82
47366;BME280;33105;47.964;7.982;2023-07-09T03:54:22;97074.47;;;19.45;57.47
47366;BME280;33105;47.964;7.982;2023-07-09T03:57:23;97086.38;;;19.45;57.78
47366;BME280;33105;47.964;7.982;2023-07-09T04:00:24;97084.63;;;19.49;57.43
47366;BME280;33105;47.964;7.982;2023-07-09T04:03:25;97085.44;;;19.36;58.51
47366;BME280;33105;47.964;7.982;2023-07-09T04:06:27;97084.63;;;19.35;57.85
47366;BME280;33105;47.964;7.982;2023-07-09T04:09:28;97085.84;;;19.43;58.50
47366;BME280;33105;47.964;7.982;2023-07-09T04:12:29;97077.66;;;19.38;58.87
47366;BME280;33105;47.964;7.982;2023-07-09T04:15:30;97080.41;;;19.38;59.69
47366;BME280;33105;47.964;7.982;2023-07-09T04:18:31;97088.00;;;19.46;58.37
47366;BME280;33105;47.964;7.982;2023-07-09T04:21:33;97084.84;;;19.39;58.95
47366;BME280;33105;47.964;7.982;2023-07-09T04:24:34;97088.94;;;19.55;58.29
47366;BME280;33105;47.964;7.982;2023-07-09T04:27:36;97087.19;;;19.46;59.77
47366;BME280;33105;47.964;7.982;2023-07-09T04:30:37;97090.06;;;19.41;60.46
47366;BME280;33105;47.964;7.982;2023-07-09T04:33:39;97089.66;;;19.47;59.80
47366;BME280;33105;47.964;7.982;2023-07-09T04:36:40;97091.19;;;19.40;61.12
47366;BME280;33105;47.964;7.982;2023-07-09T04:39:41;97087.50;;;19.44;60.25
47366;BME280;33105;47.964;7.982;2023-07-09T04:42:42;97094.00;;;19.53;59.95
47366;BME280;33105;47.964;7.982;2023-07-09T04:45:44;97086.03;;;19.60;60.87
47366;BME280;33105;47.964;7.982;2023-07-09T04:48:45;97082.16;;;19.84;58.67
47366;BME280;33105;47.964;7.982;2023-07-09T04:51:46;97090.97;;;19.63;61.15
47366;BME280;33105;47.964;7.982;2023-07-09T04:54:47;97094.88;;;19.62;62.28
47366;BME280;33105;47.964;7.982;2023-07-09T04:57:50;97078.38;;;19.80;59.94
47366;BME280;33105;47.964;7.982;2023-07-09T05:00:52;97080.94;;;19.90;59.70
47366;BME280;33105;47.964;7.982;2023-07-09T05:03:54;97079.59;;;19.87;61.71
47366;BME280;33105;47.964;7.982;2023-07-09T05:06:57;97075.88;;;19.92;60.92
47366;BME280;33105;47.964;7.982;2023-07-09T05:09:58;97076.41;;;19.94;62.36
47366;BME280;33105;47.964;7.982;2023-07-09T05:12:59;97082.75;;;20.17;60.78
47366;BME280;33105;47.964;7.982;2023-07-09T05:16:00;97077.84;;;20.14;62.25
47366;BME280;33105;47.964;7.982;2023-07-09T05:19:02;97081.69;;;20.26;61.37
47366;BME280;33105;47.964;7.982;2023-07-09T05:22:03;97080.88;;;20.48;58.28
47366;BME280;33105;47.964;7.982;2023-07-09T05:25:04;97077.00;;;20.35;61.87
47366;BME280;33105;47.964;7.982;2023-07-09T05:28:06;97072.06;;;20.55;61.35
47366;BME280;33105;47.964;7.982;2023-07-09T05:31:07;97072.44;;;20.62;61.82
47366;BME280;33105;47.964;7.982;2023-07-09T05:34:08;97078.16;;;20.96;59.92
47366;BME280;33105;47.964;7.982;2023-07-09T05:37:09;97072.91;;;21.34;58.14
47366;BME280;33105;47.964;7.982;2023-07-09T05:40:11;97077.13;;;21.23;60.36
47366;BME280;33105;47.964;7.982;2023-07-09T05:43:12;97087.97;;;21.42;60.78
47366;BME280;33105;47.964;7.982;2023-07-09T05:46:13;97084.41;;;21.67;60.18
47366;BME280;33105;47.964;7.982;2023-07-09T05:49:15;97085.25;;;21.77;60.56
47366;BME280;33105;47.964;7.982;2023-07-09T05:52:17;97074.94;;;22.03;60.21
47366;BME280;33105;47.964;7.982;2023-07-09T05:55:19;97071.50;;;22.06;59.66
47366;BME280;33105;47.964;7.982;2023-07-09T05:58:20;97063.44;;;22.48;55.12
47366;BME280;33105;47.964;7.982;2023-07-09T06:01:22;97074.06;;;22.54;59.41
47366;BME280;33105;47.964;7.982;2023-07-09T06:04:23;97074.69;;;22.60;60.12
47366;BME280;33105;47.964;7.982;2023-07-09T06:07:26;97077.13;;;22.70;56.16
47366;BME280;33105;47.964;7.982;2023-07-09T06:10:27;97076.31;;;22.78;59.66
47366;BME280;33105;47.964;7.982;2023-07-09T06:13:29;97074.44;;;22.99;56.67
47366;BME280;33105;47.964;7.982;2023-07-09T06:16:34;97074.91;;;23.31;56.72
47366;BME280;33105;47.964;7.982;2023-07-09T06:19:35;97073.69;;;23.20;57.66
47366;BME280;33105;47.964;7.982;2023-07-09T06:22:37;97071.47;;;23.34;59.07
47366;BME280;33105;47.964;7.982;2023-07-09T06:25:38;97067.72;;;23.59;59.66
47366;BME280;33105;47.964;7.982;2023-07-09T06:28:40;97064.00;;;23.47;59.45
47366;BME280;33105;47.964;7.982;2023-07-09T06:31:41;97069.69;;;23.80;58.19
47366;BME280;33105;47.964;7.982;2023-07-09T06:34:43;97065.28;;;23.99;55.72
47366;BME280;33105;47.964;7.982;2023-07-09T06:37:44;97065.53;;;24.06;59.59
47366;BME280;33105;47.964;7.982;2023-07-09T06:40:46;97060.97;;;24.44;55.91
47366;BME280;33105;47.964;7.982;2023-07-09T06:43:47;97066.22;;;24.57;57.87
47366;BME280;33105;47.964;7.982;2023-07-09T06:46:48;97063.47;;;24.82;54.75
47366;BME280;33105;47.964;7.982;2023-07-09T06:49:49;97062.19;;;24.67;57.09
47366;BME280;33105;47.964;7.982;2023-07-09T06:52:51;97061.56;;;25.06;57.44
47366;BME280;33105;47.964;7.982;2023-07-09T06:55:52;97059.47;;;25.28;55.38
47366;BME280;33105;47.964;7.982;2023-07-09T06:58:56;97053.66;;;25.45;56.21
47366;BME280;33105;47.964;7.982;2023-07-09T07:01:57;97061.91;;;25.29;56.55
47366;BME280;33105;47.964;7.982;2023-07-09T07:04:58;97058.88;;;25.34;59.22
47366;BME280;33105;47.964;7.982;2023-07-09T07:08:01;97053.63;;;25.57;58.94
47366;BME280;33105;47.964;7.982;2023-07-09T07:11:03;97043.84;;;25.39;57.90
47366;BME280;33105;47.964;7.982;2023-07-09T07:14:06;97035.22;;;25.68;56.08
47366;BME280;33105;47.964;7.982;2023-07-09T07:17:07;97048.16;;;25.73;56.55
47366;BME280;33105;47.964;7.982;2023-07-09T07:20:10;97024.69;;;26.18;50.79
47366;BME280;33105;47.964;7.982;2023-07-09T07:23:12;97023.69;;;26.54;50.02
47366;BME280;33105;47.964;7.982;2023-07-09T07:26:13;97035.06;;;26.17;52.93
47366;BME280;33105;47.964;7.982;2023-07-09T07:29:14;97029.09;;;26.19;52.98
47366;BME280;33105;47.964;7.982;2023-07-09T07:32:15;97022.88;;;26.25;56.89
47366;BME280;33105;47.964;7.982;2023-07-09T07:35:16;97032.28;;;26.61;54.43
47366;BME280;33105;47.964;7.982;2023-07-09T07:38:19;97030.31;;;26.61;52.80
47366;BME280;33105;47.964;7.982;2023-07-09T07:41:20;97024.13;;;26.40;52.05
47366;BME280;33105;47.964;7.982;2023-07-09T07:44:22;97032.41;;;26.64;57.74
47366;BME280;33105;47.964;7.982;2023-07-09T07:47:24;97027.66;;;26.96;50.79
47366;BME280;33105;47.964;7.982;2023-07-09T07:50:25;97026.84;;;26.96;50.54
47366;BME280;33105;47.964;7.982;2023-07-09T07:53:26;97027.72;;;27.00;51.27
47366;BME280;33105;47.964;7.982;2023-07-09T07:56:30;97029.44;;;27.36;51.12
47366;BME280;33105;47.964;7.982;2023-07-09T07:59:31;97027.16;;;27.41;49.61
47366;BME280;33105;47.964;7.982;2023-07-09T08:02:35;97024.59;;;27.52;50.88
47366;BME280;33105;47.964;7.982;2023-07-09T08:05:37;97034.19;;;27.51;50.44
47366;BME280;33105;47.964;7.982;2023-07-09T08:08:38;97023.50;;;28.11;47.17
47366;BME280;33105;47.964;7.982;2023-07-09T08:11:39;97022.94;;;28.40;46.89
47366;BME280;33105;47.964;7.982;2023-07-09T08:14:42;97023.53;;;28.30;50.81
47366;BME280;33105;47.964;7.982;2023-07-09T08:17:43;97023.06;;;28.48;49.46
47366;BME280;33105;47.964;7.982;2023-07-09T08:20:45;97031.06;;;28.46;47.79
47366;BME280;33105;47.964;7.982;2023-07-09T08:23:46;97028.09;;;28.19;47.60
47366;BME280;33105;47.964;7.982;2023-07-09T08:26:47;97023.69;;;28.37;48.18
47366;BME280;33105;47.964;7.982;2023-07-09T08:29:49;97032.25;;;28.87;45.24
47366;BME280;33105;47.964;7.982;2023-07-09T08:32:50;97033.75;;;29.03;49.16
47366;BME280;33105;47.964;7.982;2023-07-09T08:35:52;97035.81;;;28.84;45.20
47366;BME280;33105;47.964;7.982;2023-07-09T08:38:54;97037.16;;;28.70;43.12
47366;BME280;33105;47.964;7.982;2023-07-09T08:42:02;97035.00;;;28.83;44.44
47366;BME280;33105;47.964;7.982;2023-07-09T08:48:33;97034.47;;;29.46;44.75
47366;BME280;33105;47.964;7.982;2023-07-09T08:51:38;97039.69;;;29.44;43.91
47366;BME280;33105;47.964;7.982;2023-07-09T08:54:42;97041.41;;;29.52;43.36
47366;BME280;33105;47.964;7.982;2023-07-09T08:57:57;97045.22;;;29.63;44.77
47366;BME280;33105;47.964;7.982;2023-07-09T09:01:03;97040.75;;;29.36;41.78
47366;BME280;33105;47.964;7.982;2023-07-09T09:04:15;97048.66;;;29.79;42.16
47366;BME280;33105;47.964;7.982;2023-07-09T09:10:42;97042.16;;;29.75;41.65
47366;BME280;33105;47.964;7.982;2023-07-09T09:13:45;97034.13;;;30.34;41.45
47366;BME280;33105;47.964;7.982;2023-07-09T09:16:47;97033.91;;;30.16;40.99
47366;BME280;33105;47.964;7.982;2023-07-09T09:26:18;97011.44;;;30.23;42.94
47366;BME280;33105;47.964;7.982;2023-07-09T09:29:19;97008.47;;;30.42;41.68
47366;BME280;33105;47.964;7.982;2023-07-09T09:32:34;97006.44;;;30.80;43.72
47366;BME280;33105;47.964;7.982;2023-07-09T09:35:41;97000.78;;;30.39;41.33
47366;BME280;33105;47.964;7.982;2023-07-09T09:38:42;97003.94;;;30.68;39.99
47366;BME280;33105;47.964;7.982;2023-07-09T09:41:45;97002.75;;;31.13;39.51
47366;BME280;33105;47.964;7.982;2023-07-09T09:44:47;97002.06;;;31.27;38.84
47366;BME280;33105;47.964;7.982;2023-07-09T09:47:48;96995.56;;;31.23;39.91
47366;BME280;33105;47.964;7.982;2023-07-09T09:50:51;96999.34;;;31.41;39.97
47366;BME280;33105;47.964;7.982;2023-07-09T09:53:58;97001.16;;;31.16;37.94
47366;BME280;33105;47.964;7.982;2023-07-09T09:56:59;97004.78;;;31.13;36.85
47366;BME280;33105;47.964;7.982;2023-07-09T10:00:00;96996.00;;;31.83;36.99
47366;BME280;33105;47.964;7.982;2023-07-09T10:03:04;96995.66;;;31.95;37.53
47366;BME280;33105;47.964;7.982;2023-07-09T10:06:26;97003.06;;;31.56;37.19
47366;BME280;33105;47.964;7.982;2023-07-09T10:16:32;96991.59;;;31.86;36.28
47366;BME280;33105;47.964;7.982;2023-07-09T10:26:15;96992.44;;;31.97;38.97
47366;BME280;33105;47.964;7.982;2023-07-09T10:29:45;96996.63;;;31.59;39.57
47366;BME280;33105;47.964;7.982;2023-07-09T10:33:13;96986.47;;;32.12;36.76
47366;BME280;33105;47.964;7.982;2023-07-09T10:39:34;96983.25;;;32.14;37.01
47366;BME280;33105;47.964;7.982;2023-07-09T10:42:45;96992.09;;;32.09;38.35
47366;BME280;33105;47.964;7.982;2023-07-09T10:45:51;96990.44;;;32.01;36.83
47366;BME280;33105;47.964;7.982;2023-07-09T10:48:55;96989.41;;;31.65;35.42
47366;BME280;33105;47.964;7.982;2023-07-09T10:55:21;96976.31;;;32.04;36.00
47366;BME280;33105;47.964;7.982;2023-07-09T10:58:34;96981.63;;;32.17;34.97
47366;BME280;33105;47.964;7.982;2023-07-09T11:01:40;96981.72;;;32.31;34.69
47366;BME280;33105;47.964;7.982;2023-07-09T11:04:47;96968.84;;;32.51;37.43
47366;BME280;33105;47.964;7.982;2023-07-09T11:08:10;96964.78;;;32.52;33.79
47366;BME280;33105;47.964;7.982;2023-07-09T11:11:43;96963.66;;;32.85;36.46
47366;BME280;33105;47.964;7.982;2023-07-09T11:14:51;96964.06;;;32.76;33.42
47366;BME280;33105;47.964;7.982;2023-07-09T11:17:57;96964.06;;;33.05;32.93
47366;BME280;33105;47.964;7.982;2023-07-09T11:21:16;96964.91;;;32.91;34.15
47366;BME280;33105;47.964;7.982;2023-07-09T11:24:30;96968.13;;;32.83;33.74
47366;BME280;33105;47.964;7.982;2023-07-09T11:27:32;96963.66;;;32.99;33.16
47366;BME280;33105;47.964;7.982;2023-07-09T11:30:51;96960.00;;;33.49;34.20
47366;BME280;33105;47.964;7.982;2023-07-09T11:34:07;96960.44;;;33.40;38.19
47366;BME280;33105;47.964;7.982;2023-07-09T11:37:11;96962.44;;;33.50;36.15
47366;BME280;33105;47.964;7.982;2023-07-09T11:40:14;96964.06;;;33.62;31.21
47366;BME280;33105;47.964;7.982;2023-07-09T11:46:31;96968.13;;;33.15;31.16
47366;BME280;33105;47.964;7.982;2023-07-09T11:49:43;96959.63;;;33.04;30.47
47366;BME280;33105;47.964;7.982;2023-07-09T11:52:54;96962.03;;;32.98;33.67
47366;BME280;33105;47.964;7.982;2023-07-09T11:55:55;96954.38;;;33.13;34.86
47366;BME280;33105;47.964;7.982;2023-07-09T11:58:57;96966.94;;;33.30;31.38
47366;BME280;33105;47.964;7.982;2023-07-09T12:01:59;96960.06;;;33.34;33.93
47366;BME280;33105;47.964;7.982;2023-07-09T12:05:04;96961.19;;;33.72;31.69
47366;BME280;33105;47.964;7.982;2023-07-09T12:08:06;96960.78;;;33.70;33.24
47366;BME280;33105;47.964;7.982;2023-07-09T12:14:26;96945.44;;;33.61;34.14
47366;BME280;33105;47.964;7.982;2023-07-09T12:17:28;96949.91;;;33.44;32.06
47366;BME280;33105;47.964;7.982;2023-07-09T12:20:34;96934.91;;;33.61;32.20
47366;BME280;33105;47.964;7.982;2023-07-09T12:23:36;96938.53;;;33.65;32.20
47366;BME280;33105;47.964;7.982;2023-07-09T12:26:37;96934.09;;;33.57;32.03
47366;BME280;33105;47.964;7.982;2023-07-09T12:29:39;96937.34;;;33.52;32.68
47366;BME280;33105;47.964;7.982;2023-07-09T12:32:47;96938.16;;;33.45;33.30
47366;BME280;33105;47.964;7.982;2023-07-09T12:36:04;96921.91;;;33.67;33.33
47366;BME280;33105;47.964;7.982;2023-07-09T12:39:09;96923.19;;;33.52;32.67
47366;BME280;33105;47.964;7.982;2023-07-09T12:42:25;96926.00;;;33.59;34.75
47366;BME280;33105;47.964;7.982;2023-07-09T12:45:29;96936.53;;;33.62;33.20
47366;BME280;33105;47.964;7.982;2023-07-09T12:48:32;96917.91;;;33.61;33.99
47366;BME280;33105;47.964;7.982;2023-07-09T12:51:37;96914.69;;;33.45;32.66
47366;BME280;33105;47.964;7.982;2023-07-09T12:54:38;96913.88;;;33.44;33.00
47366;BME280;33105;47.964;7.982;2023-07-09T12:57:40;96920.75;;;33.47;34.00
47366;BME280;33105;47.964;7.982;2023-07-09T13:00:47;96921.56;;;33.51;33.09
47366;BME280;33105;47.964;7.982;2023-07-09T13:03:55;96914.63;;;33.88;35.28
47366;BME280;33105;47.964;7.982;2023-07-09T13:06:57;96913.75;;;33.91;32.65
47366;BME280;33105;47.964;7.982;2023-07-09T13:10:16;96920.22;;;34.02;33.41
47366;BME280;33105;47.964;7.982;2023-07-09T13:13:20;96914.19;;;33.89;34.63
47366;BME280;33105;47.964;7.982;2023-07-09T13:16:21;96912.59;;;33.70;31.96
47366;BME280;33105;47.964;7.982;2023-07-09T13:19:22;96913.28;;;34.10;35.12
47366;BME280;33105;47.964;7.982;2023-07-09T13:22:24;96893.34;;;34.31;31.92
47366;BME280;33105;47.964;7.982;2023-07-09T13:25:26;96909.59;;;34.17;31.92
47366;BME280;33105;47.964;7.982;2023-07-09T13:28:30;96893.34;;;34.24;31.35
47366;BME280;33105;47.964;7.982;2023-07-09T13:31:32;96897.84;;;34.18;33.89
47366;BME280;33105;47.964;7.982;2023-07-09T13:34:33;96890.41;;;33.55;33.35
47366;BME280;33105;47.964;7.982;2023-07-09T13:37:35;96892.38;;;33.68;31.59
47366;BME280;33105;47.964;7.982;2023-07-09T13:40:36;96889.53;;;33.68;32.34
47366;BME280;33105;47.964;7.982;2023-07-09T13:43:39;96896.00;;;33.72;32.84
47366;BME280;33105;47.964;7.982;2023-07-09T13:46:43;96887.91;;;33.82;34.81
47366;BME280;33105;47.964;7.982;2023-07-09T13:49:45;96883.34;;;34.02;35.23
47366;BME280;33105;47.964;7.982;2023-07-09T13:52:47;96871.47;;;34.25;37.38
47366;BME280;33105;47.964;7.982;2023-07-09T13:55:50;96871.50;;;34.18;36.79
47366;BME280;33105;47.964;7.982;2023-07-09T13:58:51;96864.34;;;33.92;34.33
47366;BME280;33105;47.964;7.982;2023-07-09T14:01:55;96864.41;;;33.85;33.82
47366;BME280;33105;47.964;7.982;2023-07-09T14:04:59;96856.72;;;33.82;35.25
47366;BME280;33105;47.964;7.982;2023-07-09T14:08:01;96856.16;;;34.15;32.09
47366;BME280;33105;47.964;7.982;2023-07-09T14:11:02;96856.66;;;33.96;32.44
47366;BME280;33105;47.964;7.982;2023-07-09T14:14:19;96849.72;;;34.04;30.08
47366;BME280;33105;47.964;7.982;2023-07-09T14:17:21;96849.03;;;33.86;31.43
47366;BME280;33105;47.964;7.982;2023-07-09T14:20:23;96836.53;;;33.65;31.15
47366;BME280;33105;47.964;7.982;2023-07-09T14:23:25;96851.25;;;33.07;32.84
47366;BME280;33105;47.964;7.982;2023-07-09T14:26:26;96845.97;;;33.37;32.98
47366;BME280;33105;47.964;7.982;2023-07-09T14:29:28;96839.34;;;33.69;35.67
47366;BME280;33105;47.964;7.982;2023-07-09T14:32:38;96840.13;;;33.73;30.97
47366;BME280;33105;47.964;7.982;2023-07-09T14:35:43;96845.81;;;33.66;34.67
47366;BME280;33105;47.964;7.982;2023-07-09T14:38:45;96841.03;;;33.52;34.12
47366;BME280;33105;47.964;7.982;2023-07-09T14:41:46;96837.84;;;33.25;32.61
47366;BME280;33105;47.964;7.982;2023-07-09T14:44:48;96843.97;;;33.02;30.54
47366;BME280;33105;47.964;7.982;2023-07-09T14:47:51;96846.03;;;32.84;30.89
47366;BME280;33105;47.964;7.982;2023-07-09T14:50:53;96845.22;;;32.80;32.38
47366;BME280;33105;47.964;7.982;2023-07-09T14:53:54;96846.44;;;32.90;32.49
47366;BME280;33105;47.964;7.982;2023-07-09T14:56:57;96848.03;;;32.62;34.51
47366;BME280;33105;47.964;7.982;2023-07-09T14:59:58;96850.84;;;32.37;32.92
47366;BME280;33105;47.964;7.982;2023-07-09T15:02:59;96848.84;;;32.41;34.54
47366;BME280;33105;47.964;7.982;2023-07-09T15:06:01;96828.22;;;32.52;34.05
47366;BME280;33105;47.964;7.982;2023-07-09T15:09:03;96847.59;;;32.32;30.91
47366;BME280;33105;47.964;7.982;2023-07-09T15:12:08;96843.97;;;32.45;35.14
47366;BME280;33105;47.964;7.982;2023-07-09T15:15:28;96848.44;;;32.57;36.75
47366;BME280;33105;47.964;7.982;2023-07-09T15:18:29;96834.25;;;33.10;31.26
47366;BME280;33105;47.964;7.982;2023-07-09T15:21:31;96839.13;;;33.06;32.28
47366;BME280;33105;47.964;7.982;2023-07-09T15:24:34;96833.03;;;33.33;32.52
47366;BME280;33105;47.964;7.982;2023-07-09T15:27:35;96833.34;;;33.49;33.23
47366;BME280;33105;47.964;7.982;2023-07-09T15:30:37;96824.63;;;33.99;34.80
47366;BME280;33105;47.964;7.982;2023-07-09T15:33:39;96825.31;;;34.21;32.61
47366;BME280;33105;47.964;7.982;2023-07-09T15:36:44;96819.28;;;34.15;32.69
47366;BME280;33105;47.964;7.982;2023-07-09T15:39:46;96817.16;;;34.33;30.54
47366;BME280;33105;47.964;7.982;2023-07-09T15:42:50;96804.41;;;33.93;30.75
47366;BME280;33105;47.964;7.982;2023-07-09T15:45:55;96813.81;;;33.79;29.64
47366;BME280;33105;47.964;7.982;2023-07-09T15:48:57;96808.66;;;33.50;33.99
47366;BME280;33105;47.964;7.982;2023-07-09T15:51:58;96812.38;;;33.39;31.33
47366;BME280;33105;47.964;7.982;2023-07-09T15:55:00;96819.25;;;33.21;32.73
47366;BME280;33105;47.964;7.982;2023-07-09T15:58:01;96810.81;;;33.13;35.26
47366;BME280;33105;47.964;7.982;2023-07-09T16:01:02;96811.97;;;33.34;32.80
47366;BME280;33105;47.964;7.982;2023-07-09T16:04:08;96815.25;;;33.07;36.95
47366;BME280;33105;47.964;7.982;2023-07-09T16:07:10;96813.66;;;32.99;34.99
47366;BME280;33105;47.964;7.982;2023-07-09T16:10:12;96824.56;;;33.08;35.10
47366;BME280;33105;47.964;7.982;2023-07-09T16:13:20;96821.75;;;33.01;33.17
47366;BME280;33105;47.964;7.982;2023-07-09T16:16:23;96814.09;;;32.87;32.09
47366;BME280;33105;47.964;7.982;2023-07-09T16:19:26;96818.94;;;32.76;36.81
47366;BME280;33105;47.964;7.982;2023-07-09T16:22:27;96816.06;;;33.08;33.55
47366;BME280;33105;47.964;7.982;2023-07-09T16:25:34;96814.47;;;32.96;29.75
47366;BME280;33105;47.964;7.982;2023-07-09T16:28:35;96810.81;;;32.96;31.30
47366;BME280;33105;47.964;7.982;2023-07-09T16:31:37;96808.41;;;32.98;33.07
47366;BME280;33105;47.964;7.982;2023-07-09T16:34:38;96809.53;;;33.22;29.48
47366;BME280;33105;47.964;7.982;2023-07-09T16:37:40;96807.53;;;33.19;30.22
47366;BME280;33105;47.964;7.982;2023-07-09T16:40:41;96808.72;;;33.25;30.50
47366;BME280;33105;47.964;7.982;2023-07-09T16:43:43;96811.59;;;33.14;30.76
47366;BME280;33105;47.964;7.982;2023-07-09T16:46:44;96804.75;;;32.94;32.99
47366;BME280;33105;47.964;7.982;2023-07-09T16:49:48;96814.47;;;32.68;31.04
47366;BME280;33105;47.964;7.982;2023-07-09T16:52:51;96810.84;;;32.46;31.82